Nieuwerkerken, Belgium
Current Conditions -  °F | °C
As of 5:25 PM on Wednesday 22 Oct 2014 (Local Time) from EBDT Reporting Station
Scattered Clouds Scattered Clouds  
Wind Chill: 50°   Ceiling: Unl
Heat Index: 50°   Visibility: 5mi
Dew Point: 46°   Wind: 8mph
Humidity: 87%   Direction: 290°WNW
Pressure: 30.15"   Gusts: NA
Location:  50.86°N, 5.19°E
Report Text: EBDT 221525Z AUTO 29007KT 8000 SCT065/// 10/08 Q1021 BLU
Loading
Personal Weather Stations






























Interactive Weather Map
Tropical Storm Tracking
New forecast layout! Learn more

10-Day Weather Forecast

Advertisements
Track Severe Weather on mobile